Time;durP1;ratioP1;P1;durP2;ratioP2;P2;SDS_P1;SDS_P2;PMS_P1;PMS_P2;Temp;Humidity;BMP_temperature;BMP_pressure;BME280_temperature;BME280_humidity;BME280_pressure;Samples;Min_cycle;Max_cycle;Signal;HPM_P1;HPM_P2
2023/12/20 00:08:45;443205.00;1.48;764.10;0.00;0.00;0.62;;;;;12.40;1.00;;;;;;1951320;40;3428;-90
2023/12/20 00:23:41;317118.00;1.06;547.34;0.00;0.00;0.62;;;;;12.30;1.00;;;;;;1980225;40;3448;-88
2023/12/20 01:08:25;437761.00;1.46;754.73;0.00;0.00;0.62;;;;;11.50;1.00;;;;;;2288045;55;3639;-87
2023/12/20 01:13:27;96176.00;0.32;166.97;0.00;0.00;0.62;;;;;11.10;1.00;;;;;;2281922;61;1421;-88
2023/12/20 01:23:20;271127.00;0.90;468.28;0.00;0.00;0.62;;;;;11.00;1.00;;;;;;2290509;40;3475;-87
2023/12/20 01:48:09;63558.00;0.21;110.63;0.00;0.00;0.62;;;;;11.30;1.00;;;;;;2282439;61;1422;-88
2023/12/20 01:50:37;74840.00;0.25;130.12;0.00;0.00;0.62;;;;;11.30;1.00;;;;;;2280449;61;1049;-86
2023/12/20 01:53:06;202303.00;0.67;349.89;0.00;0.00;0.62;;;;;11.30;1.00;;;;;;2280387;61;969;-86
2023/12/20 02:00:31;518783.00;1.73;894.17;0.00;0.00;0.62;;;;;11.10;1.00;;;;;;2286403;60;1395;-87
2023/12/20 02:03:02;17183.00;0.06;30.39;0.00;0.00;0.62;;;;;10.90;1.00;;;;;;2284278;60;1998;-87
2023/12/20 02:05:31;5224.00;0.02;9.67;0.00;0.00;0.62;;;;;10.70;1.00;;;;;;2284415;60;988;-87
2023/12/20 02:10:26;140030.00;0.47;242.62;0.00;0.00;0.62;;;;;10.30;1.00;;;;;;2286380;60;1402;-88
2023/12/20 02:12:54;118882.00;0.40;206.15;0.00;0.00;0.62;;;;;10.30;1.00;;;;;;2286977;39;3635;-86
2023/12/20 02:15:21;8395.00;0.03;15.17;0.00;0.00;0.62;;;;;10.50;1.00;;;;;;2284536;60;1915;-89
2023/12/20 02:17:49;104197.00;0.35;180.82;0.00;0.00;0.62;;;;;10.50;1.00;;;;;;2284539;60;1353;-89
2023/12/20 02:22:45;80540.00;0.27;139.97;0.00;0.00;0.62;;;;;10.40;1.00;;;;;;2286387;60;1394;-87
2023/12/20 02:25:12;42543.00;0.14;74.29;0.00;0.00;0.62;;;;;10.40;1.00;;;;;;2284459;60;2126;-88
2023/12/20 02:27:40;5803.00;0.02;10.68;0.00;0.00;0.62;;;;;10.70;1.00;;;;;;2306704;55;3759;-87
2023/12/20 02:30:08;123882.00;0.41;214.78;0.00;0.00;0.62;;;;;10.50;1.00;;;;;;2284432;60;723;-87
2023/12/20 02:32:34;20793.00;0.07;36.64;0.00;0.00;0.62;;;;;10.30;1.00;;;;;;2284463;60;1465;-89
2023/12/20 02:35:01;21259.00;0.07;37.45;0.00;0.00;0.62;;;;;10.30;1.00;;;;;;2284500;60;1919;-88
2023/12/20 02:37:27;28920.00;0.10;50.71;0.00;0.00;0.62;;;;;10.30;1.00;;;;;;2284416;60;1383;-87
2023/12/20 02:39:55;82909.00;0.28;144.06;0.00;0.00;0.62;;;;;10.30;1.00;;;;;;2284404;60;1050;-88
2023/12/20 02:44:50;254213.00;0.85;439.20;0.00;0.00;0.62;;;;;10.60;1.00;;;;;;2276552;61;1428;-88
2023/12/20 02:47:17;60267.00;0.20;104.94;0.00;0.00;0.62;;;;;10.60;1.00;;;;;;2276265;61;1301;-87
2023/12/20 02:49:44;104083.00;0.35;180.62;0.00;0.00;0.62;;;;;10.80;1.00;;;;;;2276192;61;1324;-88
2023/12/20 02:52:11;48341.00;0.16;84.32;0.00;0.00;0.62;;;;;10.70;1.00;;;;;;2276068;61;1105;-88
2023/12/20 02:54:37;0.00;0.00;0.62;0.00;0.00;0.62;;;;;10.70;1.00;;;;;;2276310;61;1024;-85
2023/12/20 02:57:06;122432.00;0.41;212.28;0.00;0.00;0.62;;;;;10.50;1.00;;;;;;2276072;61;1923;-88
2023/12/20 03:02:02;121847.00;0.41;211.27;0.00;0.00;0.62;;;;;10.40;1.00;;;;;;2282323;61;1481;-89
2023/12/20 03:04:29;0.00;0.00;0.62;0.00;0.00;0.62;;;;;10.70;1.00;;;;;;2280268;61;1022;-85
2023/12/20 03:06:56;0.00;0.00;0.62;0.00;0.00;0.62;;;;;10.80;1.00;;;;;;2280213;61;1579;-87
2023/12/20 03:11:52;101418.00;0.34;176.02;0.00;0.00;0.62;;;;;10.70;1.00;;;;;;2278140;61;1411;-88
2023/12/20 03:14:20;44277.00;0.15;77.29;0.00;0.00;0.62;;;;;10.80;1.00;;;;;;2292301;41;3554;-87
2023/12/20 03:16:48;115904.00;0.39;201.02;0.00;0.00;0.62;;;;;10.70;1.00;;;;;;2284220;60;1992;-87
2023/12/20 03:19:15;54952.00;0.18;95.75;0.00;0.00;0.62;;;;;10.80;1.00;;;;;;2290197;40;3654;-89
2023/12/20 03:21:42;84419.00;0.28;146.67;0.00;0.00;0.62;;;;;10.20;1.00;;;;;;2286216;60;1381;-87
2023/12/20 03:24:09;6270.00;0.02;11.49;0.00;0.00;0.62;;;;;10.60;1.00;;;;;;2284399;60;903;-87
2023/12/20 03:26:36;56131.00;0.19;97.79;0.00;0.00;0.62;;;;;10.60;1.00;;;;;;2284257;60;1012;-89
2023/12/20 03:29:03;69369.00;0.23;120.67;0.00;0.00;0.62;;;;;10.70;1.00;;;;;;2284126;60;1363;-86
2023/12/20 03:34:00;138923.00;0.46;240.71;0.00;0.00;0.62;;;;;10.50;1.00;;;;;;2281570;61;1359;-85
2023/12/20 03:38:56;211068.00;0.70;364.97;0.00;0.00;0.62;;;;;10.30;1.00;;;;;;2281690;60;1506;-86
2023/12/20 03:41:23;80858.00;0.27;140.52;0.00;0.00;0.62;;;;;10.50;1.00;;;;;;2280086;60;898;-87
2023/12/20 03:43:50;105857.00;0.35;183.68;0.00;0.00;0.62;;;;;10.50;1.00;;;;;;2282676;55;3749;-87
2023/12/20 03:46:17;102508.00;0.34;177.90;0.00;0.00;0.62;;;;;10.60;1.00;;;;;;2284257;60;1107;-87
2023/12/20 03:48:44;42589.00;0.14;74.37;0.00;0.00;0.62;;;;;10.80;1.00;;;;;;2288739;55;3839;-86
2023/12/20 03:51:12;113034.00;0.38;196.06;19036.00;0.06;33.60;;;;;10.80;1.00;;;;;;2308007;40;3572;-87
2023/12/20 03:53:40;65719.00;0.22;114.36;0.00;0.00;0.62;;;;;11.00;1.00;;;;;;2284032;60;906;-86
2023/12/20 03:56:07;177308.00;0.59;306.85;15035.00;0.05;26.67;;;;;11.00;1.00;;;;;;2323677;40;3643;-87
2023/12/20 03:58:34;9941.00;0.03;17.85;0.00;0.00;0.62;;;;;10.80;1.00;;;;;;2283918;60;1303;-87
2023/12/20 04:01:01;8942.00;0.03;16.12;0.00;0.00;0.62;;;;;10.70;1.00;;;;;;2284145;60;1044;-87
2023/12/20 04:03:28;61491.00;0.20;107.05;0.00;0.00;0.62;;;;;10.70;1.00;;;;;;2284048;60;1077;-87
2023/12/20 04:05:55;25980.00;0.09;45.62;0.00;0.00;0.62;;;;;10.60;1.00;;;;;;2284110;60;1055;-87
2023/12/20 04:08:23;0.00;0.00;0.62;0.00;0.00;0.62;;;;;10.70;1.00;;;;;;2284070;60;1391;-87
2023/12/20 04:10:50;29438.00;0.10;51.61;0.00;0.00;0.62;;;;;10.80;1.00;;;;;;2284160;60;1176;-87
2023/12/20 04:13:17;121535.00;0.41;210.73;0.00;0.00;0.62;;;;;10.30;1.00;;;;;;2284173;60;1221;-88
2023/12/20 04:15:44;12098.00;0.04;21.58;0.00;0.00;0.62;;;;;10.30;1.00;;;;;;2284162;60;2005;-87
2023/12/20 04:18:11;29840.00;0.10;52.31;0.00;0.00;0.62;;;;;10.30;1.00;;;;;;2284111;60;2205;-86
2023/12/20 04:20:38;59991.00;0.20;104.46;0.00;0.00;0.62;;;;;10.70;1.00;;;;;;2284212;60;922;-86
2023/12/20 04:23:05;6843.00;0.02;12.48;0.00;0.00;0.62;;;;;10.30;1.00;;;;;;2284205;60;1718;-88
2023/12/20 04:25:33;73773.00;0.25;128.28;0.00;0.00;0.62;;;;;10.00;1.00;;;;;;2293741;55;3781;-88
2023/12/20 04:28:00;5517.00;0.02;10.18;0.00;0.00;0.62;;;;;9.80;2.40;;;;;;2284893;60;1273;-88
2023/12/20 04:30:27;0.00;0.00;0.62;0.00;0.00;0.62;;;;;9.80;2.50;;;;;;2285014;60;1062;-88
2023/12/20 04:32:53;3311.00;0.01;6.36;0.00;0.00;0.62;;;;;9.70;2.90;;;;;;2284900;60;1175;-85
2023/12/20 04:35:20;31640.00;0.11;55.42;0.00;0.00;0.62;;;;;9.60;3.80;;;;;;2284981;60;1009;-87
2023/12/20 04:37:49;9716.00;0.03;17.46;0.00;0.00;0.62;;;;;9.50;3.60;;;;;;2284893;60;1379;-86
2023/12/20 04:40:16;31460.00;0.10;55.11;0.00;0.00;0.62;;;;;9.60;3.80;;;;;;2284861;60;1286;-88
2023/12/20 04:42:44;8608.00;0.03;15.54;0.00;0.00;0.62;;;;;9.50;4.70;;;;;;2284898;60;1448;-86
2023/12/20 04:45:12;0.00;0.00;0.62;0.00;0.00;0.62;;;;;9.70;3.70;;;;;;2284933;60;1039;-86
2023/12/20 04:47:39;12957.00;0.04;23.07;0.00;0.00;0.62;;;;;9.40;3.90;;;;;;2284857;60;1265;-87
2023/12/20 04:50:07;30327.00;0.10;53.15;0.00;0.00;0.62;;;;;9.40;5.20;;;;;;2284853;60;1091;-87
2023/12/20 04:52:34;40540.00;0.14;70.82;0.00;0.00;0.62;;;;;9.60;3.90;;;;;;2284928;60;1010;-86
2023/12/20 04:55:01;25763.00;0.09;45.25;0.00;0.00;0.62;;;;;9.60;3.40;;;;;;2284900;60;917;-86
2023/12/20 04:57:28;0.00;0.00;0.62;0.00;0.00;0.62;;;;;9.60;4.40;;;;;;2284787;60;2009;-86
2023/12/20 04:59:56;16056.00;0.05;28.44;0.00;0.00;0.62;;;;;9.80;3.20;;;;;;2284766;60;1024;-86
2023/12/20 05:02:23;790.00;0.00;1.99;0.00;0.00;0.62;;;;;9.80;3.10;;;;;;2284810;60;1105;-87
2023/12/20 05:04:50;0.00;0.00;0.62;0.00;0.00;0.62;;;;;9.40;3.60;;;;;;2284798;60;1903;-87
2023/12/20 05:07:17;0.00;0.00;0.62;0.00;0.00;0.62;;;;;9.50;3.10;;;;;;2284851;60;1335;-88
2023/12/20 05:09:43;0.00;0.00;0.62;0.00;0.00;0.62;;;;;9.40;4.20;;;;;;2284850;60;1111;-87
2023/12/20 05:12:10;0.00;0.00;0.62;0.00;0.00;0.62;;;;;9.50;3.80;;;;;;2284906;60;1049;-86
2023/12/20 05:14:37;113739.00;0.38;197.28;0.00;0.00;0.62;;;;;9.20;4.10;;;;;;2284780;60;1105;-87
2023/12/20 05:17:05;21426.00;0.07;37.74;0.00;0.00;0.62;;;;;9.10;5.40;;;;;;2284809;60;1997;-87
2023/12/20 05:19:35;73328.00;0.24;127.51;0.00;0.00;0.62;;;;;9.10;4.20;;;;;;2284746;60;1429;-86
2023/12/20 05:22:01;0.00;0.00;0.62;0.00;0.00;0.62;;;;;8.90;4.40;;;;;;2284763;60;1001;-86
2023/12/20 05:24:28;14058.00;0.05;24.98;0.00;0.00;0.62;;;;;9.00;4.20;;;;;;2284791;60;1135;-87
2023/12/20 05:26:55;7099.00;0.02;12.92;0.00;0.00;0.62;;;;;9.10;3.90;;;;;;2284775;60;996;-87
2023/12/20 05:29:22;66628.00;0.22;115.93;0.00;0.00;0.62;;;;;9.10;3.60;;;;;;2284754;60;1375;-86
2023/12/20 05:31:49;27670.00;0.09;48.55;0.00;0.00;0.62;;;;;9.40;3.30;;;;;;2284826;60;1050;-86
2023/12/20 05:34:17;0.00;0.00;0.62;0.00;0.00;0.62;;;;;9.40;3.10;;;;;;2284771;60;1036;-87
2023/12/20 05:36:44;0.00;0.00;0.62;0.00;0.00;0.62;;;;;9.40;3.00;;;;;;2284724;60;2015;-87
2023/12/20 05:39:11;60506.00;0.20;105.35;0.00;0.00;0.62;;;;;9.40;3.70;;;;;;2284592;60;1359;-88
2023/12/20 05:41:37;4562.00;0.02;8.53;0.00;0.00;0.62;;;;;9.50;3.30;;;;;;2284769;60;1118;-87
2023/12/20 05:44:04;0.00;0.00;0.62;0.00;0.00;0.62;;;;;9.20;4.10;;;;;;2284786;60;1151;-88
2023/12/20 05:46:31;0.00;0.00;0.62;0.00;0.00;0.62;;;;;9.30;3.50;;;;;;2284805;60;1017;-86
2023/12/20 05:48:58;0.00;0.00;0.62;0.00;0.00;0.62;;;;;9.20;3.10;;;;;;2284762;60;1395;-85
2023/12/20 05:51:26;10886.00;0.04;19.48;0.00;0.00;0.62;;;;;9.20;3.40;;;;;;2284718;60;1010;-85
2023/12/20 05:53:53;17083.00;0.06;30.22;0.00;0.00;0.62;;;;;9.20;3.50;;;;;;2284706;60;1102;-87
2023/12/20 05:56:20;0.00;0.00;0.62;0.00;0.00;0.62;;;;;9.10;3.60;;;;;;2284642;60;1915;-86
2023/12/20 05:58:46;9426.00;0.03;16.95;0.00;0.00;0.62;;;;;9.00;4.40;;;;;;2284680;60;1353;-87
2023/12/20 06:01:16;69999.00;0.23;121.76;0.00;0.00;0.62;;;;;8.90;5.40;;;;;;2284688;60;1036;-88
2023/12/20 06:03:45;0.00;0.00;0.62;0.00;0.00;0.62;;;;;9.10;4.90;;;;;;2284726;60;1046;-87
2023/12/20 06:06:12;449800.00;1.50;775.44;155417.00;0.52;269.14;;;;;9.00;3.60;;;;;;2284720;60;981;-88
2023/12/20 06:08:43;0.00;0.00;0.62;0.00;0.00;0.62;;;;;8.70;4.80;;;;;;2284638;60;1290;-86
2023/12/20 06:11:10;0.00;0.00;0.62;0.00;0.00;0.62;;;;;8.80;5.60;;;;;;2284595;60;1020;-87
2023/12/20 06:13:36;39625.00;0.13;69.24;0.00;0.00;0.62;;;;;8.90;5.30;;;;;;2284521;60;1415;-87
2023/12/20 06:16:06;54925.00;0.18;95.70;0.00;0.00;0.62;;;;;8.80;4.70;;;;;;2284584;60;1921;-86
2023/12/20 06:18:33;3163.00;0.01;6.10;0.00;0.00;0.62;;;;;9.00;5.00;;;;;;2284596;60;1336;-87
2023/12/20 06:20:59;17449.00;0.06;30.85;0.00;0.00;0.62;;;;;9.10;4.10;;;;;;2284561;60;1079;-88
2023/12/20 06:23:27;0.00;0.00;0.62;0.00;0.00;0.62;;;;;9.10;3.60;;;;;;2284681;60;999;-86
2023/12/20 06:25:55;26944.00;0.09;47.29;0.00;0.00;0.62;;;;;9.20;4.40;;;;;;2284540;60;1153;-87
2023/12/20 06:28:22;0.00;0.00;0.62;0.00;0.00;0.62;;;;;9.20;3.30;;;;;;2284600;60;1382;-87
2023/12/20 06:30:49;0.00;0.00;0.62;0.00;0.00;0.62;;;;;9.50;3.70;;;;;;2284570;60;1111;-86
2023/12/20 06:33:16;0.00;0.00;0.62;0.00;0.00;0.62;;;;;9.80;2.50;;;;;;2284565;60;1031;-87
2023/12/20 06:35:43;3679.00;0.01;7.00;0.00;0.00;0.62;;;;;9.70;1.00;;;;;;2284583;60;1000;-88
2023/12/20 06:38:10;15488.00;0.05;27.46;0.00;0.00;0.62;;;;;9.70;1.40;;;;;;2284499;60;2000;-87
2023/12/20 06:40:37;4782.00;0.02;8.91;0.00;0.00;0.62;;;;;9.80;1.30;;;;;;2284626;60;1036;-88
2023/12/20 06:43:06;11698.00;0.04;20.89;0.00;0.00;0.62;;;;;10.20;1.00;;;;;;2284502;60;1426;-88
2023/12/20 06:45:33;34668.00;0.12;60.66;0.00;0.00;0.62;;;;;10.20;1.00;;;;;;2284545;60;1117;-87
2023/12/20 06:48:00;451.00;0.00;1.40;0.00;0.00;0.62;;;;;10.30;1.00;;;;;;2284376;60;1372;-86
2023/12/20 06:50:27;0.00;0.00;0.62;0.00;0.00;0.62;;;;;10.40;1.00;;;;;;2284276;60;1024;-86
2023/12/20 06:52:54;4201.00;0.01;7.90;0.00;0.00;0.62;;;;;10.30;1.00;;;;;;2284466;60;1117;-85
2023/12/20 06:55:21;48855.00;0.16;85.21;0.00;0.00;0.62;;;;;10.40;1.00;;;;;;2284515;60;876;-87
2023/12/20 06:57:47;8132.00;0.03;14.71;0.00;0.00;0.62;;;;;10.60;1.00;;;;;;2284419;60;1917;-87
2023/12/20 07:00:17;44853.00;0.15;78.28;0.00;0.00;0.62;;;;;10.70;1.00;;;;;;2284458;60;1059;-87
2023/12/20 07:02:45;35447.00;0.12;62.01;0.00;0.00;0.62;;;;;10.70;1.00;;;;;;2284532;60;1113;-86
2023/12/20 07:05:12;0.00;0.00;0.62;0.00;0.00;0.62;;;;;10.50;1.00;;;;;;2284441;60;1661;-87
2023/12/20 07:07:38;0.00;0.00;0.62;0.00;0.00;0.62;;;;;10.60;1.00;;;;;;2284467;60;1382;-88
2023/12/20 07:10:07;0.00;0.00;0.62;0.00;0.00;0.62;;;;;10.70;1.00;;;;;;2284482;60;1104;-86
2023/12/20 07:12:34;79065.00;0.26;137.42;0.00;0.00;0.62;;;;;10.50;1.00;;;;;;2284397;60;1015;-88
2023/12/20 07:15:01;18230.00;0.06;32.20;0.00;0.00;0.62;;;;;10.40;1.00;;;;;;2284420;60;1539;-88
2023/12/20 07:17:29;0.00;0.00;0.62;0.00;0.00;0.62;;;;;10.20;1.00;;;;;;2284394;60;1918;-85
2023/12/20 07:19:56;0.00;0.00;0.62;0.00;0.00;0.62;;;;;10.30;1.00;;;;;;2284428;60;974;-88
2023/12/20 07:22:23;98690.00;0.33;171.31;0.00;0.00;0.62;;;;;10.20;1.00;;;;;;2284394;60;1625;-89
2023/12/20 07:24:52;9343.00;0.03;16.81;0.00;0.00;0.62;;;;;10.10;1.00;;;;;;2284335;60;1100;-88
2023/12/20 07:27:19;0.00;0.00;0.62;0.00;0.00;0.62;;;;;9.90;1.00;;;;;;2284347;60;1445;-87
2023/12/20 07:29:45;0.00;0.00;0.62;0.00;0.00;0.62;;;;;9.90;1.00;;;;;;2284406;60;1004;-88
2023/12/20 07:32:12;0.00;0.00;0.62;0.00;0.00;0.62;;;;;9.70;1.00;;;;;;2284460;60;1075;-87
2023/12/20 07:34:40;34814.00;0.12;60.91;0.00;0.00;0.62;;;;;9.70;1.00;;;;;;2284365;60;929;-89
2023/12/20 07:37:10;25547.00;0.09;44.87;0.00;0.00;0.62;;;;;10.10;1.00;;;;;;2284328;60;2003;-87
2023/12/20 07:39:36;0.00;0.00;0.62;0.00;0.00;0.62;;;;;10.00;1.00;;;;;;2284258;60;2257;-87
2023/12/20 07:42:03;8880.00;0.03;16.01;0.00;0.00;0.62;;;;;10.20;1.00;;;;;;2284317;60;936;-88
2023/12/20 07:44:31;40145.00;0.13;70.14;0.00;0.00;0.62;;;;;10.70;1.00;;;;;;2284346;60;1085;-87
2023/12/20 07:46:58;93956.00;0.31;163.14;0.00;0.00;0.62;;;;;10.90;1.00;;;;;;2284339;60;1232;-88
2023/12/20 07:49:25;21825.00;0.07;38.43;0.00;0.00;0.62;;;;;11.10;1.00;;;;;;2284292;60;1306;-87
2023/12/20 07:51:53;81209.00;0.27;141.13;0.00;0.00;0.62;;;;;11.00;1.00;;;;;;2284292;60;2174;-88
2023/12/20 07:54:20;51897.00;0.17;90.47;0.00;0.00;0.62;;;;;10.70;1.00;;;;;;2284254;60;1593;-87
2023/12/20 07:56:48;24341.00;0.08;42.79;0.00;0.00;0.62;;;;;10.60;1.00;;;;;;2284299;60;2011;-87
2023/12/20 07:59:15;108430.00;0.36;188.12;0.00;0.00;0.62;;;;;10.70;1.00;;;;;;2284268;60;1379;-88
2023/12/20 08:01:42;71078.00;0.24;123.62;0.00;0.00;0.62;;;;;10.30;1.00;;;;;;2284734;60;1093;-87
2023/12/20 08:04:09;144825.00;0.48;250.89;0.00;0.00;0.62;;;;;10.00;1.00;;;;;;2284835;60;1293;-87
2023/12/20 08:06:35;6104.00;0.02;11.20;0.00;0.00;0.62;;;;;10.00;1.00;;;;;;2285000;60;1145;-88
2023/12/20 08:09:04;9606.00;0.03;17.27;0.00;0.00;0.62;;;;;10.20;1.00;;;;;;2284950;60;2153;-88
2023/12/20 08:11:30;0.00;0.00;0.62;0.00;0.00;0.62;;;;;10.20;1.00;;;;;;2284943;60;1062;-87
2023/12/20 08:13:58;29259.00;0.10;51.30;0.00;0.00;0.62;;;;;10.30;1.00;;;;;;2284966;60;1549;-88
2023/12/20 08:16:25;1116.00;0.00;2.55;0.00;0.00;0.62;;;;;10.40;1.00;;;;;;2284785;60;1114;-88
2023/12/20 08:18:52;0.00;0.00;0.62;0.00;0.00;0.62;;;;;10.50;1.00;;;;;;2284966;60;2009;-89
2023/12/20 08:21:20;0.00;0.00;0.62;0.00;0.00;0.62;;;;;10.50;1.00;;;;;;2284999;60;914;-89
2023/12/20 08:23:48;0.00;0.00;0.62;0.00;0.00;0.62;;;;;10.30;1.00;;;;;;2284961;60;1093;-88
2023/12/20 08:26:21;12950.00;0.04;23.06;0.00;0.00;0.62;;;;;10.00;1.00;;;;;;2284778;60;1497;-88
2023/12/20 08:28:48;59634.00;0.20;103.84;0.00;0.00;0.62;;;;;9.60;1.40;;;;;;2284774;60;1362;-87
2023/12/20 08:31:16;12397.00;0.04;22.10;0.00;0.00;0.62;;;;;9.90;2.10;;;;;;2284981;60;946;-88
2023/12/20 08:33:44;14419.00;0.05;25.60;0.00;0.00;0.62;;;;;10.10;1.00;;;;;;2284846;60;1025;-88
2023/12/20 08:36:10;23481.00;0.08;41.30;0.00;0.00;0.62;;;;;10.20;1.00;;;;;;2284951;60;989;-89
2023/12/20 08:38:37;0.00;0.00;0.62;0.00;0.00;0.62;;;;;10.40;1.00;;;;;;2284780;60;2006;-89
2023/12/20 08:41:05;31283.00;0.10;54.80;0.00;0.00;0.62;;;;;10.50;1.00;;;;;;2284762;60;995;-88
2023/12/20 08:43:35;38564.00;0.13;67.40;0.00;0.00;0.62;;;;;10.60;1.00;;;;;;2284901;60;1078;-88
2023/12/20 08:46:02;0.00;0.00;0.62;0.00;0.00;0.62;;;;;10.90;1.00;;;;;;2284826;60;1016;-88
2023/12/20 08:48:29;0.00;0.00;0.62;0.00;0.00;0.62;;;;;10.80;1.00;;;;;;2284915;60;1320;-89
2023/12/20 08:50:56;45338.00;0.15;79.12;0.00;0.00;0.62;;;;;10.80;1.00;;;;;;2284856;60;1086;-89
2023/12/20 08:53:23;190007.00;0.63;328.72;46140.00;0.15;80.51;;;;;10.90;1.00;;;;;;2284872;60;1091;-87
2023/12/20 08:55:50;213477.00;0.71;369.12;21996.00;0.07;38.73;;;;;11.10;1.00;;;;;;2284909;60;972;-91
2023/12/20 08:58:17;14941.00;0.05;26.51;0.00;0.00;0.62;;;;;11.30;1.00;;;;;;2284797;60;1918;-88
2023/12/20 09:00:46;5444.00;0.02;10.06;0.00;0.00;0.62;;;;;11.60;1.00;;;;;;2284855;60;1112;-87
2023/12/20 09:03:12;66560.00;0.22;115.82;0.00;0.00;0.62;;;;;11.60;1.00;;;;;;2284877;60;979;-87
2023/12/20 09:05:39;0.00;0.00;0.62;0.00;0.00;0.62;;;;;11.60;1.00;;;;;;2284868;60;1093;-88
2023/12/20 09:08:07;11779.00;0.04;21.03;0.00;0.00;0.62;;;;;11.80;1.00;;;;;;2284719;60;1391;-88
2023/12/20 09:10:34;26896.00;0.09;47.21;0.00;0.00;0.62;;;;;11.90;1.00;;;;;;2284779;60;1036;-89
2023/12/20 09:13:02;7356.00;0.02;13.37;0.00;0.00;0.62;;;;;12.00;1.00;;;;;;2284501;60;1089;-88
2023/12/20 09:15:30;0.00;0.00;0.62;0.00;0.00;0.62;;;;;12.10;1.00;;;;;;2284869;60;941;-88
2023/12/20 09:17:58;19574.00;0.07;34.53;0.00;0.00;0.62;;;;;11.70;1.00;;;;;;2284770;60;1920;-88
2023/12/20 09:20:25;22529.00;0.08;39.65;0.00;0.00;0.62;;;;;11.40;1.00;;;;;;2284340;60;1206;-87
2023/12/20 09:22:52;27195.00;0.09;47.73;0.00;0.00;0.62;;;;;11.20;1.00;;;;;;2284819;60;1018;-87
2023/12/20 09:25:19;28715.00;0.10;50.36;0.00;0.00;0.62;;;;;11.00;1.00;;;;;;2284650;60;1098;-88
2023/12/20 09:27:46;36347.00;0.12;63.57;0.00;0.00;0.62;;;;;10.30;1.00;;;;;;2284690;60;1388;-91
2023/12/20 09:30:13;6621.00;0.02;12.09;0.00;0.00;0.62;;;;;10.30;1.00;;;;;;2284619;60;1055;-88
2023/12/20 09:32:40;97665.00;0.33;169.54;0.00;0.00;0.62;;;;;10.10;1.00;;;;;;2284531;60;2432;-88
2023/12/20 09:35:09;37227.00;0.12;65.09;0.00;0.00;0.62;;;;;9.80;1.00;;;;;;2284559;60;1092;-87
2023/12/20 09:37:36;38626.00;0.13;67.51;0.00;0.00;0.62;;;;;10.10;1.00;;;;;;2284430;60;1919;-86
2023/12/20 09:40:03;77789.00;0.26;135.22;0.00;0.00;0.62;;;;;10.10;1.00;;;;;;2284739;60;1064;-88
2023/12/20 09:42:39;44246.00;0.15;77.23;0.00;0.00;0.62;;;;;10.10;1.00;;;;;;2284657;60;1034;-89
2023/12/20 09:45:10;164039.00;0.55;284.00;0.00;0.00;0.62;;;;;10.10;1.00;;;;;;2284633;60;935;-88
2023/12/20 09:47:37;123444.00;0.41;214.02;36652.00;0.12;64.10;;;;;10.00;1.00;;;;;;2284560;60;1485;-86
2023/12/20 09:50:04;0.00;0.00;0.62;0.00;0.00;0.62;;;;;10.30;1.00;;;;;;2284668;60;1013;-88
2023/12/20 09:52:35;69757.00;0.23;121.34;0.00;0.00;0.62;;;;;10.30;1.00;;;;;;2284643;60;923;-88
2023/12/20 09:55:05;76577.00;0.26;133.12;0.00;0.00;0.62;;;;;10.50;1.00;;;;;;2284577;60;1017;-88
2023/12/20 09:57:32;106341.00;0.35;184.52;0.00;0.00;0.62;;;;;10.60;1.00;;;;;;2284552;60;1931;-89
2023/12/20 09:59:59;112212.00;0.37;194.65;0.00;0.00;0.62;;;;;10.60;1.00;;;;;;2284568;60;1078;-90
2023/12/20 10:02:27;24691.00;0.08;43.39;0.00;0.00;0.62;;;;;10.30;1.00;;;;;;2284579;60;1094;-88
2023/12/20 10:04:55;64630.00;0.22;112.48;0.00;0.00;0.62;;;;;9.90;1.00;;;;;;2284544;60;1010;-87
2023/12/20 10:07:22;93716.00;0.31;162.72;0.00;0.00;0.62;;;;;9.80;1.00;;;;;;2284594;60;1247;-87
2023/12/20 10:09:55;118563.00;0.40;205.60;0.00;0.00;0.62;;;;;9.70;1.00;;;;;;2284637;60;1025;-89
2023/12/20 10:12:21;49864.00;0.17;86.95;0.00;0.00;0.62;;;;;9.80;1.00;;;;;;2284601;60;1100;-88
2023/12/20 10:14:48;158564.00;0.53;274.57;5147.00;0.02;9.54;;;;;9.70;1.00;;;;;;2284686;60;1070;-86
2023/12/20 10:17:15;36064.00;0.12;63.08;0.00;0.00;0.62;;;;;10.10;1.00;;;;;;2284610;60;1913;-88
2023/12/20 10:19:44;130014.00;0.43;225.35;0.00;0.00;0.62;;;;;10.10;1.00;;;;;;2284644;60;1129;-87
2023/12/20 10:22:11;132378.00;0.44;229.43;0.00;0.00;0.62;;;;;9.80;1.00;;;;;;2284633;60;1115;-87
2023/12/20 10:24:38;101485.00;0.34;176.14;0.00;0.00;0.62;;;;;10.00;1.00;;;;;;2284568;60;1089;-89
2023/12/20 10:27:09;0.00;0.00;0.62;0.00;0.00;0.62;;;;;9.90;1.00;;;;;;2284578;60;1122;-87
2023/12/20 10:29:37;139015.00;0.46;240.87;21940.00;0.07;38.63;;;;;9.80;1.00;;;;;;2284447;60;1409;-87
2023/12/20 10:32:22;115521.00;0.39;200.36;0.00;0.00;0.62;;;;;9.90;1.00;;;;;;2284539;60;991;-87
2023/12/20 10:34:49;272816.00;0.91;471.19;85704.00;0.29;148.89;;;;;9.80;1.00;;;;;;2284592;60;1018;-88
2023/12/20 10:37:16;269364.00;0.90;465.25;70470.00;0.23;122.57;;;;;9.80;1.00;;;;;;2284587;60;2009;-89
2023/12/20 10:39:44;280483.00;0.93;484.37;93339.00;0.31;162.07;;;;;9.70;1.00;;;;;;2284526;60;959;-86
2023/12/20 10:42:14;339409.00;1.13;585.66;101261.00;0.34;175.75;;;;;10.00;1.00;;;;;;2284444;60;1849;-87
2023/12/20 10:44:41;263710.00;0.88;455.53;96424.00;0.32;167.40;;;;;9.90;1.00;;;;;;2284520;60;918;-87
2023/12/20 10:47:10;372477.00;1.24;642.49;90692.00;0.30;157.50;;;;;10.00;1.00;;;;;;2284450;60;1089;-88
2023/12/20 10:49:38;255352.00;0.85;441.16;86018.00;0.29;149.43;;;;;10.30;1.00;;;;;;2284539;60;1039;-88
2023/12/20 10:52:07;250975.00;0.84;433.63;91167.00;0.30;158.32;;;;;10.30;1.00;;;;;;2284431;60;1553;-87
2023/12/20 10:54:34;243894.00;0.81;421.45;88854.00;0.30;154.33;;;;;10.10;1.00;;;;;;2284524;60;1008;-87
2023/12/20 10:57:04;178829.00;0.60;309.47;103135.00;0.34;178.98;;;;;10.30;1.00;;;;;;2284500;60;1110;-85
2023/12/20 10:59:35;215851.00;0.72;373.20;85610.00;0.29;148.73;;;;;10.50;1.00;;;;;;2284393;60;1929;-87
2023/12/20 11:02:05;642686.00;2.14;1107.98;169043.00;0.56;292.62;;;;;10.30;1.00;;;;;;2284444;60;1076;-87
2023/12/20 11:05:02;250274.00;0.83;432.42;89275.00;0.30;155.06;;;;;10.60;1.00;;;;;;2284540;60;1111;-86
2023/12/20 11:07:37;583996.00;1.95;1006.59;0.00;0.00;0.62;;;;;10.50;1.00;;;;;;2283392;60;1721;-85
2023/12/20 11:10:15;426022.00;1.42;734.55;0.00;0.00;0.62;;;;;10.40;1.00;;;;;;2284462;60;1718;-87
2023/12/20 11:12:49;357070.00;1.19;616.01;0.00;0.00;0.62;;;;;10.70;1.00;;;;;;2284428;60;1722;-88
2023/12/20 11:15:19;511334.00;1.70;881.34;0.00;0.00;0.62;;;;;10.70;1.00;;;;;;2284428;60;997;-88
2023/12/20 11:17:47;590921.00;1.97;1018.55;71041.00;0.24;123.56;;;;;10.50;1.00;;;;;;2284211;60;2018;-87
2023/12/20 11:20:13;518408.00;1.73;893.52;23082.00;0.08;40.61;;;;;10.90;1.00;;;;;;2284351;60;1644;-86
2023/12/20 11:22:53;467404.00;1.56;805.72;23395.00;0.08;41.15;;;;;10.90;1.00;;;;;;2284422;60;1067;-87
2023/12/20 11:25:19;647251.00;2.16;1115.88;0.00;0.00;0.62;;;;;11.00;1.00;;;;;;2284177;60;1041;-87
2023/12/20 11:28:10;644208.00;2.15;1110.62;10178.00;0.03;18.26;;;;;10.70;1.00;;;;;;2284340;60;1445;-88
2023/12/20 11:30:47;417275.00;1.39;719.51;69177.00;0.23;120.34;;;;;10.70;1.00;;;;;;2284412;60;1039;-87
2023/12/20 11:33:15;184878.00;0.62;319.89;0.00;0.00;0.62;;;;;10.70;1.00;;;;;;2284428;60;1037;-89
2023/12/20 11:35:42;163853.00;0.55;283.68;21331.00;0.07;37.57;;;;;10.80;1.00;;;;;;2284041;60;1002;-86
2023/12/20 11:38:10;62605.00;0.21;108.98;0.00;0.00;0.62;;;;;10.20;1.00;;;;;;2284193;60;2005;-88
2023/12/20 11:40:38;205469.00;0.68;355.34;18296.00;0.06;32.32;;;;;9.80;1.00;;;;;;2284143;60;1057;-88
2023/12/20 11:43:05;183812.00;0.61;318.05;49348.00;0.16;86.06;;;;;9.70;1.00;;;;;;2284260;60;1050;-87
2023/12/20 11:45:32;120132.00;0.40;208.31;0.00;0.00;0.62;;;;;9.90;1.00;;;;;;2284325;60;995;-86
2023/12/20 11:48:01;188757.00;0.63;326.57;0.00;0.00;0.62;;;;;10.20;1.00;;;;;;2284200;60;1285;-88
2023/12/20 11:50:29;174558.00;0.58;302.12;0.00;0.00;0.62;;;;;9.90;1.00;;;;;;2284280;60;1078;-87
2023/12/20 11:52:57;204503.00;0.68;353.67;0.00;0.00;0.62;;;;;9.80;1.00;;;;;;2284246;60;1224;-88
2023/12/20 11:55:24;23094.00;0.08;40.63;0.00;0.00;0.62;;;;;9.70;1.00;;;;;;2284034;60;1657;-88
2023/12/20 11:57:52;320513.00;1.07;553.18;0.00;0.00;0.62;;;;;9.40;1.00;;;;;;2284023;60;2005;-87
2023/12/20 12:00:20;76004.00;0.25;132.13;0.00;0.00;0.62;;;;;9.60;1.00;;;;;;2284113;60;1629;-88
2023/12/20 12:02:57;177522.00;0.59;307.22;37529.00;0.13;65.61;;;;;9.60;1.00;;;;;;2284358;60;1114;-89
2023/12/20 12:05:25;236418.00;0.79;408.59;5856.00;0.02;10.77;;;;;9.60;1.00;;;;;;2284265;60;1277;-89
2023/12/20 12:07:53;44528.00;0.15;77.72;0.00;0.00;0.62;;;;;9.50;1.00;;;;;;2284211;60;1370;-88
2023/12/20 12:10:20;0.00;0.00;0.62;0.00;0.00;0.62;;;;;9.40;1.00;;;;;;2284159;60;1560;-88
2023/12/20 12:12:47;67206.00;0.22;116.93;0.00;0.00;0.62;;;;;9.10;1.00;;;;;;2284178;60;2402;-87